createdAt,value
2017-08-13T00:01:02.017Z,90.40
2017-08-13T00:03:32.045Z,90.40
2017-08-13T00:06:01.347Z,90.40
2017-08-13T00:08:30.742Z,90.40
2017-08-13T00:11:01.049Z,90.30
2017-08-13T00:13:31.071Z,90.30
2017-08-13T00:16:00.327Z,90.20
2017-08-13T00:18:29.687Z,90.40
2017-08-13T00:20:59.106Z,90.30
2017-08-13T00:23:28.422Z,90.30
2017-08-13T00:25:57.714Z,90.20
2017-08-13T00:28:26.961Z,90.20
2017-08-13T00:30:56.457Z,90.10
2017-08-13T00:33:25.726Z,90.00
2017-08-13T00:35:55.042Z,90.20
2017-08-13T00:38:24.291Z,90.10
2017-08-13T00:40:53.567Z,90.20
2017-08-13T00:43:22.835Z,90.40
2017-08-13T00:45:52.082Z,90.50
2017-08-13T00:48:21.361Z,90.30
2017-08-13T00:50:50.661Z,90.10
2017-08-13T00:53:19.932Z,90.10
2017-08-13T00:55:49.169Z,90.20
2017-08-13T00:58:18.511Z,90.30
2017-08-13T01:00:47.777Z,90.40
2017-08-13T01:03:20.922Z,90.30
2017-08-13T01:05:50.251Z,90.20
2017-08-13T01:08:19.472Z,90.20
2017-08-13T01:10:48.823Z,90.10
2017-08-13T01:13:19.749Z,90.00
2017-08-13T01:15:49.789Z,90.40
2017-08-13T01:18:19.026Z,90.40
2017-08-13T01:20:48.654Z,90.30
2017-08-13T01:23:17.913Z,90.50
2017-08-13T01:25:47.570Z,90.40
2017-08-13T01:28:16.903Z,90.20
2017-08-13T01:30:46.150Z,90.40
2017-08-13T01:33:15.413Z,90.30
2017-08-13T01:35:44.736Z,90.20
2017-08-13T01:38:14.264Z,90.30
2017-08-13T01:40:43.778Z,90.30
2017-08-13T01:43:13.185Z,90.50
2017-08-13T01:45:42.454Z,90.50
2017-08-13T01:48:11.714Z,90.40
2017-08-13T01:50:41.026Z,90.50
2017-08-13T01:53:10.273Z,90.60
2017-08-13T01:55:39.544Z,90.80
2017-08-13T01:58:08.860Z,90.80
2017-08-13T02:00:38.349Z,90.90
2017-08-13T02:03:07.653Z,90.70
2017-08-13T02:05:36.905Z,90.60
2017-08-13T02:08:06.146Z,90.50
2017-08-13T02:10:35.478Z,90.50
2017-08-13T02:13:04.787Z,90.50
2017-08-13T02:15:34.246Z,90.30
2017-08-13T02:18:03.536Z,90.40
2017-08-13T02:20:32.826Z,90.40
2017-08-13T02:23:02.078Z,90.40
2017-08-13T02:25:31.342Z,90.30
2017-08-13T02:28:01.357Z,90.20
2017-08-13T02:30:30.739Z,90.20
2017-08-13T02:33:00.008Z,90.30
2017-08-13T02:35:29.260Z,90.40
2017-08-13T02:37:58.547Z,90.30
2017-08-13T02:40:27.797Z,90.20
2017-08-13T02:42:57.082Z,90.30
2017-08-13T02:45:26.800Z,90.30
2017-08-13T02:47:56.054Z,90.40
2017-08-13T02:50:25.386Z,90.40
2017-08-13T02:52:55.386Z,90.20
2017-08-13T02:55:24.665Z,90.20
2017-08-13T02:57:53.929Z,90.20
2017-08-13T03:00:23.256Z,90.50
2017-08-13T03:02:52.513Z,90.50
2017-08-13T03:05:21.771Z,90.00
2017-08-13T03:07:51.076Z,90.10
2017-08-13T03:10:20.422Z,90.20
2017-08-13T03:12:50.489Z,90.40
2017-08-13T03:15:19.744Z,90.40
2017-08-13T03:17:48.997Z,90.40
2017-08-13T03:20:18.263Z,90.30
2017-08-13T03:22:47.662Z,90.30
2017-08-13T03:25:16.933Z,90.30
2017-08-13T03:27:46.177Z,90.30
2017-08-13T03:30:15.447Z,90.40
2017-08-13T03:32:44.696Z,90.60
2017-08-13T03:35:14.004Z,90.60
2017-08-13T03:37:43.252Z,90.50
2017-08-13T03:40:12.510Z,90.20
2017-08-13T03:42:41.781Z,90.30
2017-08-13T03:45:11.053Z,90.40
2017-08-13T03:47:40.386Z,90.40
2017-08-13T03:50:09.689Z,90.40
2017-08-13T03:52:39.006Z,90.40
2017-08-13T03:55:08.270Z,90.40
2017-08-13T03:57:37.581Z,90.50
2017-08-13T04:00:06.876Z,90.60
2017-08-13T04:02:36.135Z,90.60
2017-08-13T04:05:06.226Z,90.50
2017-08-13T04:07:35.447Z,90.50
2017-08-13T04:10:04.720Z,90.40
2017-08-13T04:12:33.975Z,90.30
2017-08-13T04:15:03.365Z,90.40
2017-08-13T04:17:32.642Z,90.40
2017-08-13T04:20:01.873Z,90.40
2017-08-13T04:22:31.941Z,90.80
2017-08-13T04:25:01.213Z,90.80
2017-08-13T04:27:30.479Z,90.80
2017-08-13T04:29:59.811Z,90.90
2017-08-13T04:32:29.061Z,90.90
2017-08-13T04:34:58.343Z,90.80
2017-08-13T04:37:27.593Z,90.70
2017-08-13T04:39:57.651Z,90.60
2017-08-13T04:42:26.883Z,90.50
2017-08-13T04:44:56.150Z,90.50
2017-08-13T04:47:25.862Z,90.40
2017-08-13T04:49:55.156Z,90.40
2017-08-13T04:52:24.693Z,90.50
2017-08-13T04:54:53.986Z,90.70
2017-08-13T04:57:23.230Z,90.40
2017-08-13T04:59:53.292Z,90.70
2017-08-13T05:02:22.549Z,90.40
2017-08-13T05:04:51.839Z,90.20
2017-08-13T05:07:21.113Z,90.30
2017-08-13T05:09:50.581Z,90.30
2017-08-13T05:12:19.853Z,90.30
2017-08-13T05:14:50.011Z,90.30
2017-08-13T05:17:19.257Z,90.20
2017-08-13T05:19:48.508Z,90.20
2017-08-13T05:22:17.783Z,90.20
2017-08-13T05:24:47.038Z,90.20
2017-08-13T05:27:17.752Z,90.00
2017-08-13T05:29:47.029Z,88.90
2017-08-13T05:32:17.316Z,88.60
2017-08-13T05:34:46.580Z,88.60
2017-08-13T05:37:15.841Z,88.20
2017-08-13T05:39:45.104Z,88.70
2017-08-13T05:42:14.367Z,89.10
2017-08-13T05:44:43.649Z,89.60
2017-08-13T05:47:13.882Z,89.20
2017-08-13T05:49:43.154Z,89.20
2017-08-13T05:52:12.659Z,89.20
2017-08-13T05:54:41.945Z,89.10
2017-08-13T05:57:11.233Z,88.90
2017-08-13T05:59:41.138Z,88.30
2017-08-13T06:02:10.393Z,87.20
2017-08-13T06:04:40.458Z,86.00
2017-08-13T06:07:09.718Z,85.90
2017-08-13T06:09:39.003Z,86.10
2017-08-13T06:12:08.269Z,85.70
2017-08-13T06:14:37.538Z,85.40
2017-08-13T06:17:06.801Z,85.10
2017-08-13T06:19:36.150Z,84.60
2017-08-13T06:22:05.419Z,83.90
2017-08-13T06:24:35.441Z,82.80
2017-08-13T06:27:04.725Z,82.70
2017-08-13T06:29:33.987Z,83.80
2017-08-13T06:32:03.258Z,82.30
2017-08-13T06:34:33.270Z,80.50
2017-08-13T06:37:02.748Z,80.50
2017-08-13T06:39:31.994Z,78.80
2017-08-13T06:42:01.274Z,74.70
2017-08-13T06:44:31.328Z,70.90
2017-08-13T06:47:00.599Z,70.90
2017-08-13T06:49:29.870Z,66.70
2017-08-13T06:51:59.222Z,65.10
2017-08-13T06:54:28.487Z,62.50
2017-08-13T06:56:57.758Z,57.40
2017-08-13T06:59:26.998Z,51.40
2017-08-13T07:01:57.049Z,46.80
2017-08-13T07:04:26.309Z,46.70
2017-08-13T07:06:55.590Z,45.80
2017-08-13T07:09:24.861Z,40.70
2017-08-13T07:11:54.133Z,40.10
2017-08-13T07:14:24.145Z,38.10
2017-08-13T07:16:53.427Z,38.20
2017-08-13T07:19:23.339Z,37.90
2017-08-13T07:21:52.668Z,41.60
2017-08-13T07:24:21.925Z,39.70
2017-08-13T07:26:51.216Z,37.40
2017-08-13T07:29:20.468Z,38.10
2017-08-13T07:31:51.167Z,35.10
2017-08-13T07:34:20.425Z,35.00
2017-08-13T07:36:49.700Z,33.70
2017-08-13T07:39:18.968Z,31.00
2017-08-13T07:41:48.214Z,30.20
2017-08-13T07:44:17.454Z,30.60
2017-08-13T07:46:46.733Z,32.30
2017-08-13T07:49:16.690Z,36.10
2017-08-13T07:51:45.981Z,40.80
2017-08-13T07:54:15.239Z,45.10
2017-08-13T07:56:44.653Z,45.80
2017-08-13T07:59:13.910Z,47.60
2017-08-13T08:01:43.148Z,49.40
2017-08-13T08:04:12.421Z,50.80
2017-08-13T08:06:41.693Z,45.00
2017-08-13T08:09:10.996Z,40.40
2017-08-13T08:11:40.240Z,39.80
2017-08-13T08:14:09.499Z,39.20
2017-08-13T08:16:38.802Z,39.80
2017-08-13T08:19:08.062Z,40.40
2017-08-13T08:21:37.311Z,42.60
2017-08-13T08:24:06.597Z,44.40
2017-08-13T08:26:35.834Z,46.00
2017-08-13T08:29:05.880Z,49.30
2017-08-13T08:31:35.121Z,49.30
2017-08-13T08:34:04.368Z,50.60
2017-08-13T08:36:33.627Z,50.50
2017-08-13T08:39:02.869Z,52.70
2017-08-13T08:41:32.136Z,45.30
2017-08-13T08:44:01.374Z,44.40
2017-08-13T08:46:30.674Z,47.30
2017-08-13T08:49:00.055Z,48.70
2017-08-13T08:51:29.664Z,39.30
2017-08-13T08:53:59.688Z,41.90
2017-08-13T08:56:28.947Z,41.90
2017-08-13T08:58:58.263Z,32.60
2017-08-13T09:01:27.519Z,30.70
2017-08-13T09:03:56.835Z,30.40
2017-08-13T09:06:26.106Z,28.50
2017-08-13T09:08:55.376Z,27.40
2017-08-13T09:11:25.406Z,27.50
2017-08-13T09:13:54.712Z,27.00
2017-08-13T09:16:24.005Z,25.10
2017-08-13T09:18:53.431Z,24.20
2017-08-13T09:21:23.454Z,23.60
2017-08-13T09:23:52.698Z,23.60
2017-08-13T09:26:21.995Z,23.30
2017-08-13T09:28:51.293Z,23.60
2017-08-13T09:31:20.557Z,24.70
2017-08-13T09:33:49.843Z,28.30
2017-08-13T09:36:20.563Z,26.70
2017-08-13T09:38:49.832Z,26.60
2017-08-13T09:41:19.094Z,29.90
2017-08-13T09:43:49.127Z,29.40
2017-08-13T09:46:18.413Z,29.30
2017-08-13T09:48:47.704Z,29.50
2017-08-13T09:51:17.845Z,26.00
2017-08-13T09:53:47.102Z,25.80
2017-08-13T09:56:16.383Z,23.50
2017-08-13T09:58:45.651Z,25.90
2017-08-13T10:01:14.925Z,29.00
2017-08-13T10:03:44.193Z,32.60
2017-08-13T10:06:13.449Z,32.70
2017-08-13T10:08:42.720Z,36.10
2017-08-13T10:11:15.139Z,37.00
2017-08-13T10:13:45.706Z,39.20
2017-08-13T10:16:15.014Z,38.50
2017-08-13T10:18:44.280Z,39.30
2017-08-13T10:21:13.549Z,38.40
2017-08-13T10:23:42.805Z,38.70
2017-08-13T10:26:12.064Z,41.00
2017-08-13T10:28:41.339Z,37.20
2017-08-13T10:31:10.606Z,33.10
2017-08-13T10:33:39.866Z,29.20
2017-08-13T10:36:09.097Z,29.20
2017-08-13T10:38:38.369Z,26.40
2017-08-13T10:41:07.622Z,25.80
2017-08-13T10:43:36.883Z,25.60
2017-08-13T10:46:06.322Z,23.90
2017-08-13T10:48:35.594Z,24.30
2017-08-13T10:51:04.881Z,25.20
2017-08-13T10:53:35.036Z,28.20
2017-08-13T10:56:04.262Z,27.40
2017-08-13T10:58:33.542Z,29.80
2017-08-13T11:01:02.834Z,27.80
2017-08-13T11:03:32.117Z,27.30
2017-08-13T11:06:01.688Z,26.30
2017-08-13T11:08:30.981Z,25.50
2017-08-13T11:11:00.266Z,25.80
2017-08-13T11:13:29.565Z,27.20
2017-08-13T11:15:58.866Z,28.20
2017-08-13T11:18:28.166Z,29.60
2017-08-13T11:20:57.439Z,30.00
2017-08-13T11:23:26.707Z,29.90
2017-08-13T11:25:55.958Z,30.80
2017-08-13T11:28:25.262Z,35.70
2017-08-13T11:30:54.545Z,35.80
2017-08-13T11:33:23.916Z,33.20
2017-08-13T11:35:53.223Z,32.80
2017-08-13T11:38:22.665Z,36.10
2017-08-13T11:40:51.944Z,36.10
2017-08-13T11:43:21.226Z,34.60
2017-08-13T11:45:50.625Z,37.90
2017-08-13T11:48:20.650Z,39.50
2017-08-13T11:50:49.898Z,39.40
2017-08-13T11:53:19.152Z,37.80
2017-08-13T11:55:48.438Z,41.70
2017-08-13T11:58:18.478Z,37.50
2017-08-13T12:00:47.735Z,37.50
2017-08-13T12:03:17.021Z,42.20
2017-08-13T12:05:46.290Z,40.60
2017-08-13T12:08:15.624Z,43.00
2017-08-13T12:10:44.909Z,40.60
2017-08-13T12:13:14.153Z,40.40
2017-08-13T12:15:44.196Z,39.90
2017-08-13T12:18:13.495Z,39.80
2017-08-13T12:20:42.832Z,40.50
2017-08-13T12:23:12.099Z,44.80
2017-08-13T12:25:41.523Z,38.70
2017-08-13T12:28:10.793Z,37.20
2017-08-13T12:30:40.097Z,37.40
2017-08-13T12:33:09.413Z,37.40
2017-08-13T12:35:38.721Z,36.90
2017-08-13T12:38:08.069Z,40.60
2017-08-13T12:40:37.482Z,39.60
2017-08-13T12:43:06.770Z,40.80
2017-08-13T12:45:36.049Z,38.80
2017-08-13T12:48:05.319Z,37.10
2017-08-13T12:50:34.571Z,43.00
2017-08-13T12:53:03.869Z,41.30
2017-08-13T12:55:33.173Z,44.00
2017-08-13T12:58:02.438Z,42.20
2017-08-13T13:00:31.709Z,38.30
2017-08-13T13:03:02.003Z,38.00
2017-08-13T13:05:31.261Z,38.00
2017-08-13T13:08:00.538Z,36.50
2017-08-13T13:10:29.792Z,39.40
2017-08-13T13:12:59.465Z,42.00
2017-08-13T13:15:28.847Z,40.40
2017-08-13T13:17:58.113Z,39.30
2017-08-13T13:20:27.371Z,38.20
2017-08-13T13:22:56.626Z,40.40
2017-08-13T13:25:25.878Z,40.70
2017-08-13T13:27:55.273Z,43.90
2017-08-13T13:30:24.544Z,42.00
2017-08-13T13:32:53.797Z,39.30
2017-08-13T13:35:23.617Z,41.40
2017-08-13T13:37:53.011Z,40.30
2017-08-13T13:40:22.286Z,38.80
2017-08-13T13:42:51.553Z,45.30
2017-08-13T13:45:20.856Z,44.10
2017-08-13T13:47:50.150Z,40.10
2017-08-13T13:50:19.418Z,40.60
2017-08-13T13:52:48.830Z,41.00
2017-08-13T13:55:18.099Z,43.90
2017-08-13T13:57:47.363Z,42.20
2017-08-13T14:00:16.626Z,45.70
2017-08-13T14:02:45.912Z,45.40
2017-08-13T14:05:15.205Z,51.70
2017-08-13T14:07:44.462Z,54.20
2017-08-13T14:10:13.750Z,49.00
2017-08-13T14:12:42.999Z,40.80
2017-08-13T14:15:12.281Z,38.60
2017-08-13T14:17:41.564Z,41.00
2017-08-13T14:20:10.837Z,39.70
2017-08-13T14:22:40.162Z,39.40
2017-08-13T14:25:09.636Z,42.50
2017-08-13T14:27:39.730Z,36.60
2017-08-13T14:30:09.582Z,36.50
2017-08-13T14:32:40.389Z,34.50
2017-08-13T14:35:09.897Z,34.40
2017-08-13T14:37:39.503Z,36.10
2017-08-13T14:40:09.634Z,35.40
2017-08-13T14:42:40.000Z,36.40
2017-08-13T14:45:12.192Z,36.10
2017-08-13T14:47:42.817Z,33.40
2017-08-13T14:50:12.290Z,36.50
2017-08-13T14:52:41.557Z,33.80
2017-08-13T14:55:10.854Z,38.30
2017-08-13T14:57:40.141Z,40.40
2017-08-13T15:00:10.163Z,44.40
2017-08-13T15:02:39.449Z,44.40
2017-08-13T15:05:08.740Z,41.60
2017-08-13T15:07:38.000Z,48.70
2017-08-13T15:10:07.262Z,42.80
2017-08-13T15:12:37.281Z,39.30
2017-08-13T15:15:06.565Z,39.20
2017-08-13T15:17:35.807Z,40.90
2017-08-13T15:20:05.159Z,40.90
2017-08-13T15:22:34.467Z,41.10
2017-08-13T15:25:03.774Z,41.40
2017-08-13T15:27:33.389Z,46.40
2017-08-13T15:30:03.440Z,43.20
2017-08-13T15:32:32.707Z,43.20
2017-08-13T15:35:01.980Z,47.60
2017-08-13T15:37:31.273Z,47.00
2017-08-13T15:40:00.698Z,51.00
2017-08-13T15:42:29.971Z,51.40
2017-08-13T15:44:59.262Z,50.90
2017-08-13T15:47:28.512Z,53.40
2017-08-13T15:49:57.764Z,54.00
2017-08-13T15:52:27.039Z,53.60
2017-08-13T15:54:56.293Z,53.10
2017-08-13T15:57:25.605Z,56.10
2017-08-13T15:59:54.865Z,57.20
2017-08-13T16:02:24.150Z,58.40
2017-08-13T16:04:53.644Z,58.80
2017-08-13T16:07:22.891Z,59.70
2017-08-13T16:09:52.178Z,60.80
2017-08-13T16:12:21.442Z,63.30
2017-08-13T16:14:51.514Z,64.50
2017-08-13T16:17:20.806Z,64.50
2017-08-13T16:19:50.055Z,64.50
2017-08-13T16:22:19.323Z,65.00
2017-08-13T16:24:48.637Z,65.90
2017-08-13T16:27:17.908Z,65.40
2017-08-13T16:29:47.180Z,65.60
2017-08-13T16:32:16.434Z,66.20
2017-08-13T16:34:45.709Z,66.60
2017-08-13T16:37:14.954Z,66.40
2017-08-13T16:39:44.231Z,67.20
2017-08-13T16:42:13.521Z,67.70
2017-08-13T16:44:42.802Z,67.40
2017-08-13T16:47:12.049Z,67.70
2017-08-13T16:49:41.388Z,67.90
2017-08-13T16:52:10.656Z,68.70
2017-08-13T16:54:40.709Z,69.50
2017-08-13T16:57:09.973Z,69.50
2017-08-13T16:59:39.245Z,70.40
2017-08-13T17:02:08.717Z,69.20
2017-08-13T17:04:38.726Z,69.90
2017-08-13T17:07:08.042Z,69.70
2017-08-13T17:09:37.557Z,70.00
2017-08-13T17:12:06.829Z,70.80
2017-08-13T17:14:36.202Z,72.10
2017-08-13T17:17:06.169Z,72.40
2017-08-13T17:19:35.418Z,72.80
2017-08-13T17:22:04.694Z,73.20
2017-08-13T17:24:34.067Z,73.20
2017-08-13T17:27:03.525Z,73.20
2017-08-13T17:29:32.788Z,73.80
2017-08-13T17:32:02.063Z,74.60
2017-08-13T17:34:31.313Z,75.20
2017-08-13T17:37:00.617Z,75.70
2017-08-13T17:39:30.096Z,76.30
2017-08-13T17:41:59.341Z,76.10
2017-08-13T17:44:28.623Z,76.50
2017-08-13T17:46:58.049Z,76.90
2017-08-13T17:49:27.389Z,77.40
2017-08-13T17:51:57.385Z,77.90
2017-08-13T17:54:27.432Z,78.30
2017-08-13T17:56:56.719Z,78.30
2017-08-13T17:59:25.971Z,78.60
2017-08-13T18:01:55.254Z,78.80
2017-08-13T18:04:25.456Z,78.90
2017-08-13T18:06:54.742Z,78.70
2017-08-13T18:09:23.990Z,79.00
2017-08-13T18:11:53.270Z,79.10
2017-08-13T18:14:22.555Z,79.30
2017-08-13T18:16:52.672Z,79.70
2017-08-13T18:19:21.962Z,79.90
2017-08-13T18:21:51.975Z,80.40
2017-08-13T18:24:21.269Z,80.10
2017-08-13T18:26:50.726Z,80.20
2017-08-13T18:29:19.998Z,80.40
2017-08-13T18:31:50.023Z,80.20
2017-08-13T18:34:19.272Z,80.10
2017-08-13T18:36:48.706Z,80.40
2017-08-13T18:39:18.731Z,80.80
2017-08-13T18:41:47.994Z,80.60
2017-08-13T18:44:17.247Z,80.60
2017-08-13T18:46:46.498Z,80.80
2017-08-13T18:49:15.750Z,81.20
2017-08-13T18:51:45.080Z,80.50
2017-08-13T18:54:14.339Z,81.10
2017-08-13T18:56:44.368Z,81.40
2017-08-13T18:59:14.081Z,81.30
2017-08-13T19:01:43.597Z,81.20
2017-08-13T19:04:13.166Z,81.90
2017-08-13T19:06:42.620Z,82.30
2017-08-13T19:09:12.226Z,82.30
2017-08-13T19:11:41.896Z,82.40
2017-08-13T19:14:11.439Z,82.50
2017-08-13T19:16:40.880Z,82.30
2017-08-13T19:19:10.748Z,82.30
2017-08-13T19:21:40.414Z,82.80
2017-08-13T19:24:09.969Z,84.00
2017-08-13T19:26:39.608Z,82.90
2017-08-13T19:29:09.286Z,84.60
2017-08-13T19:31:38.894Z,84.20
2017-08-13T19:34:08.522Z,83.30
2017-08-13T19:36:39.137Z,83.60
2017-08-13T19:39:08.850Z,83.40
2017-08-13T19:41:38.518Z,83.80
2017-08-13T19:44:08.190Z,84.20
2017-08-13T19:46:37.946Z,84.40
2017-08-13T19:49:07.695Z,84.40
2017-08-13T19:51:38.004Z,84.60
2017-08-13T19:54:08.142Z,83.70
2017-08-13T19:56:37.812Z,83.60
2017-08-13T19:59:07.481Z,83.50
2017-08-13T20:01:38.550Z,84.00
2017-08-13T20:04:08.337Z,84.20
2017-08-13T20:06:38.130Z,84.10
2017-08-13T20:09:07.762Z,84.00
2017-08-13T20:11:37.549Z,84.40
2017-08-13T20:14:07.261Z,84.70
2017-08-13T20:16:36.973Z,84.80
2017-08-13T20:19:06.687Z,84.80
2017-08-13T20:21:35.974Z,84.60
2017-08-13T20:24:05.273Z,84.40
2017-08-13T20:26:34.868Z,84.40
2017-08-13T20:29:04.134Z,84.50
2017-08-13T20:31:33.665Z,85.30
2017-08-13T20:34:03.621Z,84.00
2017-08-13T20:36:34.357Z,84.70
2017-08-13T20:39:03.661Z,84.60
2017-08-13T20:41:32.916Z,84.40
2017-08-13T20:44:02.191Z,84.20
2017-08-13T20:46:31.468Z,84.40
2017-08-13T20:49:00.731Z,84.90
2017-08-13T20:51:29.999Z,84.70
2017-08-13T20:53:59.255Z,85.00
2017-08-13T20:56:28.551Z,84.70
2017-08-13T20:58:58.605Z,84.80
2017-08-13T21:01:29.416Z,84.80
2017-08-13T21:03:59.564Z,84.80
2017-08-13T21:06:28.846Z,84.80
2017-08-13T21:08:58.126Z,84.70
2017-08-13T21:11:27.517Z,84.90
2017-08-13T21:13:56.833Z,84.90
2017-08-13T21:16:26.735Z,85.10
2017-08-13T21:18:56.348Z,85.80
2017-08-13T21:21:25.693Z,84.90
2017-08-13T21:23:55.464Z,85.40
2017-08-13T21:26:24.794Z,85.20
2017-08-13T21:28:54.310Z,85.40
2017-08-13T21:31:23.608Z,85.90
2017-08-13T21:33:52.910Z,85.80
2017-08-13T21:36:22.166Z,85.90
2017-08-13T21:38:52.222Z,86.30
2017-08-13T21:41:21.505Z,85.60
2017-08-13T21:43:56.162Z,86.10
2017-08-13T21:46:25.422Z,86.20
2017-08-13T21:48:54.663Z,86.30
2017-08-13T21:51:24.030Z,86.20
2017-08-13T21:53:53.281Z,86.40
2017-08-13T21:56:22.559Z,86.40
2017-08-13T21:58:51.812Z,86.90
2017-08-13T22:01:21.064Z,86.50
2017-08-13T22:03:50.338Z,86.60
2017-08-13T22:06:19.590Z,86.70
2017-08-13T22:08:49.440Z,86.70
2017-08-13T22:11:19.050Z,86.80
2017-08-13T22:13:48.331Z,86.80
2017-08-13T22:16:17.627Z,86.80
2017-08-13T22:18:46.973Z,86.90
2017-08-13T22:21:16.245Z,86.90
2017-08-13T22:23:45.718Z,86.90
2017-08-13T22:26:15.123Z,86.90
2017-08-13T22:28:44.374Z,87.40
2017-08-13T22:31:13.669Z,87.00
2017-08-13T22:33:42.929Z,87.00
2017-08-13T22:36:12.206Z,87.00
2017-08-13T22:38:41.516Z,87.40
2017-08-13T22:41:10.804Z,87.60
2017-08-13T22:43:40.087Z,87.30
2017-08-13T22:46:10.354Z,87.40
2017-08-13T22:48:39.614Z,87.40
2017-08-13T22:51:08.889Z,87.60
2017-08-13T22:53:38.169Z,87.60
2017-08-13T22:56:07.494Z,87.60
2017-08-13T22:58:36.763Z,87.50
2017-08-13T23:01:08.678Z,87.70
2017-08-13T23:03:39.159Z,87.50
2017-08-13T23:06:08.935Z,87.50
2017-08-13T23:08:38.190Z,87.60
2017-08-13T23:11:07.476Z,87.80
2017-08-13T23:13:36.902Z,87.70
2017-08-13T23:16:06.142Z,87.90
2017-08-13T23:18:35.465Z,87.90
2017-08-13T23:21:04.745Z,87.90
2017-08-13T23:23:33.998Z,88.00
2017-08-13T23:26:03.267Z,88.10
2017-08-13T23:28:32.819Z,88.00
2017-08-13T23:31:02.097Z,88.30
2017-08-13T23:33:31.399Z,88.40
2017-08-13T23:36:00.737Z,88.30
2017-08-13T23:38:30.781Z,88.60
2017-08-13T23:41:00.037Z,88.60
2017-08-13T23:43:29.305Z,88.70
2017-08-13T23:45:58.588Z,88.80
2017-08-13T23:48:27.978Z,88.50
2017-08-13T23:50:57.434Z,88.60
2017-08-13T23:53:26.682Z,88.50
2017-08-13T23:55:55.944Z,88.80
2017-08-13T23:58:25.207Z,88.70
